Time;durP1;ratioP1;P1;durP2;ratioP2;P2;SDS_P1;SDS_P2;PMS_P1;PMS_P2;Temp;Humidity;BMP_temperature;BMP_pressure;BME280_temperature;BME280_humidity;BME280_pressure;Samples;Min_cycle;Max_cycle;Signal;HPM_P1;HPM_P2
2022/05/15 00:00:56;;;;;;;20.15;5.45;;;13.80;99.90;;;;;;5001045;28;20770;-71
2022/05/15 00:03:58;;;;;;;17.83;5.43;;;13.80;99.90;;;;;;4999364;28;20788;-71
2022/05/15 00:06:47;;;;;;;10.63;5.20;;;13.80;99.90;;;;;;5016481;28;20364;-70
2022/05/15 00:09:36;;;;;;;14.73;4.88;;;13.70;99.90;;;;;;5005231;28;20229;-70
2022/05/15 00:12:28;;;;;;;13.00;5.18;;;13.80;99.90;;;;;;5001005;28;20249;-70
2022/05/15 00:15:18;;;;;;;12.30;4.90;;;13.70;99.90;;;;;;5014595;28;20254;-70
2022/05/15 00:18:08;;;;;;;13.43;5.22;;;13.70;99.90;;;;;;5004022;28;20224;-70
2022/05/15 00:20:57;;;;;;;18.02;4.95;;;13.70;99.90;;;;;;4992072;28;20222;-71
2022/05/15 00:23:45;;;;;;;14.35;4.90;;;13.70;99.90;;;;;;4977481;28;20507;-70
2022/05/15 00:26:35;;;;;;;18.75;5.15;;;13.60;99.90;;;;;;4995666;28;20228;-70
2022/05/15 00:29:26;;;;;;;11.55;4.97;;;13.50;99.90;;;;;;4995350;28;20222;-71
2022/05/15 00:32:16;;;;;;;12.10;4.93;;;13.60;99.90;;;;;;5010375;28;20263;-71
2022/05/15 00:35:05;;;;;;;10.98;4.63;;;13.50;99.90;;;;;;4995978;28;20233;-70
2022/05/15 00:37:54;;;;;;;13.27;5.05;;;13.40;99.90;;;;;;4996935;28;20233;-71
2022/05/15 00:40:46;;;;;;;10.95;4.95;;;13.40;99.90;;;;;;4998782;28;20218;-71
2022/05/15 00:43:40;;;;;;;12.55;4.40;;;13.50;99.90;;;;;;4993940;28;20376;-72
2022/05/15 00:46:31;;;;;;;11.68;4.43;;;13.40;99.90;;;;;;4989853;28;20815;-70
2022/05/15 00:49:22;;;;;;;15.25;4.90;;;13.40;99.90;;;;;;5015303;28;20236;-72
2022/05/15 00:52:17;;;;;;;10.20;4.18;;;13.40;99.90;;;;;;5026605;28;20229;-72
2022/05/15 00:55:10;;;;;;;10.35;3.92;;;13.40;99.90;;;;;;5004712;28;20855;-72
2022/05/15 00:58:04;;;;;;;13.32;3.97;;;13.40;99.90;;;;;;5008175;28;20899;-72
2022/05/15 01:00:53;;;;;;;9.82;3.70;;;13.40;99.90;;;;;;5002245;28;20375;-71
2022/05/15 01:03:44;;;;;;;12.65;4.20;;;13.30;99.90;;;;;;5026571;28;20217;-71
2022/05/15 01:06:43;;;;;;;10.65;4.10;;;13.20;99.90;;;;;;4997683;28;20256;-71
2022/05/15 01:09:33;;;;;;;11.55;4.13;;;13.20;99.90;;;;;;4999987;28;20251;-71
2022/05/15 01:12:23;;;;;;;10.63;3.53;;;13.20;99.90;;;;;;5009205;28;20792;-70
2022/05/15 01:15:18;;;;;;;9.13;3.72;;;13.20;99.90;;;;;;4984216;28;20252;-71
2022/05/15 01:18:08;;;;;;;9.98;3.70;;;13.10;99.90;;;;;;4983264;28;20222;-69
2022/05/15 01:21:00;;;;;;;10.52;3.80;;;13.00;99.90;;;;;;4992984;28;20588;-70
2022/05/15 01:23:50;;;;;;;17.25;3.78;;;13.00;99.90;;;;;;5004637;28;20632;-69
2022/05/15 01:26:39;;;;;;;9.93;3.55;;;13.00;99.90;;;;;;5008371;28;20232;-70
2022/05/15 01:29:34;;;;;;;11.32;3.67;;;13.10;99.90;;;;;;5030791;28;20980;-72
2022/05/15 01:32:24;;;;;;;14.18;3.75;;;13.00;99.90;;;;;;5006067;28;20226;-72
2022/05/15 01:35:14;;;;;;;10.23;3.75;;;13.00;99.90;;;;;;4981661;28;20219;-71
2022/05/15 01:38:05;;;;;;;11.05;3.20;;;13.00;99.90;;;;;;5008150;28;20233;-71
2022/05/15 01:40:54;;;;;;;11.15;3.15;;;12.90;99.90;;;;;;4982320;28;20218;-71
2022/05/15 01:43:49;;;;;;;10.48;3.85;;;12.80;99.90;;;;;;4999390;28;20329;-71
2022/05/15 01:46:38;;;;;;;9.95;3.22;;;12.90;99.90;;;;;;4999612;28;20321;-71
2022/05/15 01:49:33;;;;;;;10.77;3.47;;;12.80;99.90;;;;;;4981403;28;20229;-71
2022/05/15 01:52:23;;;;;;;12.30;3.75;;;12.70;99.90;;;;;;4998303;28;20228;-71
2022/05/15 01:55:13;;;;;;;7.85;3.58;;;12.70;99.90;;;;;;5011486;28;20493;-72
2022/05/15 01:58:04;;;;;;;8.38;3.35;;;12.60;99.90;;;;;;4997252;28;20248;-70
2022/05/15 02:00:52;;;;;;;8.88;3.40;;;12.60;99.90;;;;;;4997409;28;20364;-69
2022/05/15 02:03:41;;;;;;;8.68;3.40;;;12.60;99.90;;;;;;4983236;28;20272;-71
2022/05/15 02:06:30;;;;;;;10.88;3.53;;;12.50;99.90;;;;;;4994587;28;20223;-69
2022/05/15 02:09:19;;;;;;;9.07;3.30;;;12.50;99.90;;;;;;4985097;28;20273;-69
2022/05/15 02:12:11;;;;;;;6.82;3.60;;;12.50;99.90;;;;;;4988171;28;20253;-68
2022/05/15 02:15:01;;;;;;;12.88;3.83;;;12.50;99.90;;;;;;4986852;28;20226;-71
2022/05/15 02:17:52;;;;;;;9.10;3.40;;;12.50;99.90;;;;;;4988850;28;20218;-70
2022/05/15 02:20:41;;;;;;;8.90;3.47;;;12.50;99.90;;;;;;4987269;28;20668;-70
2022/05/15 02:23:33;;;;;;;11.32;3.90;;;12.50;99.90;;;;;;4974441;28;20225;-70
2022/05/15 02:26:23;;;;;;;9.90;3.45;;;12.40;99.90;;;;;;5006712;28;20226;-68
2022/05/15 02:29:13;;;;;;;11.90;3.40;;;12.30;99.90;;;;;;5011529;28;20230;-68
2022/05/15 02:32:05;;;;;;;11.07;4.00;;;12.40;99.90;;;;;;4996543;28;20218;-68
2022/05/15 02:34:54;;;;;;;16.00;3.90;;;12.40;99.90;;;;;;4990996;28;20788;-68
2022/05/15 02:37:44;;;;;;;14.52;3.65;;;12.30;99.90;;;;;;4997034;28;20319;-69
2022/05/15 02:40:34;;;;;;;10.45;3.60;;;12.30;99.90;;;;;;5012421;28;20255;-72
2022/05/15 02:43:22;;;;;;;9.27;3.20;;;12.40;99.90;;;;;;5011609;28;20326;-71
2022/05/15 02:46:13;;;;;;;12.02;3.70;;;12.40;99.90;;;;;;5003378;28;20365;-72
2022/05/15 02:52:08;;;;;;;8.13;3.00;;;12.30;99.90;;;;;;4995793;28;20313;-71
2022/05/15 02:54:58;;;;;;;11.48;3.10;;;12.40;99.90;;;;;;4995714;28;20301;-71
2022/05/15 02:57:47;;;;;;;15.68;3.15;;;12.30;99.90;;;;;;5000504;28;20727;-71
2022/05/15 03:00:36;;;;;;;11.07;3.13;;;12.30;99.90;;;;;;4997769;28;20376;-70
2022/05/15 03:03:28;;;;;;;9.52;3.20;;;12.20;99.90;;;;;;4995533;28;20240;-68
2022/05/15 03:06:18;;;;;;;8.90;2.80;;;12.20;99.90;;;;;;4994713;28;20221;-70
2022/05/15 03:09:06;;;;;;;12.80;3.30;;;12.10;99.90;;;;;;5008042;28;20893;-70
2022/05/15 03:11:59;;;;;;;14.70;3.42;;;12.20;99.90;;;;;;4994964;28;20312;-70
2022/05/15 03:14:47;;;;;;;8.98;3.05;;;12.30;99.90;;;;;;4991770;28;20697;-69
2022/05/15 03:17:37;;;;;;;10.68;3.63;;;12.30;99.90;;;;;;4995027;28;20281;-68
2022/05/15 03:20:27;;;;;;;10.07;3.00;;;12.20;99.90;;;;;;5016147;28;20248;-68
2022/05/15 03:23:16;;;;;;;8.98;3.00;;;12.30;99.90;;;;;;4995835;28;20232;-68
2022/05/15 03:26:05;;;;;;;8.27;3.00;;;12.10;99.90;;;;;;5006552;28;20245;-68
2022/05/15 03:28:54;;;;;;;10.18;2.90;;;12.20;99.90;;;;;;4995752;28;20229;-68
2022/05/15 03:31:43;;;;;;;10.82;3.20;;;12.30;99.90;;;;;;4993352;28;20229;-68
2022/05/15 03:34:32;;;;;;;8.05;3.22;;;12.30;99.90;;;;;;5001986;28;20826;-69
2022/05/15 03:37:21;;;;;;;10.23;3.35;;;12.30;99.90;;;;;;4993000;28;20214;-68
2022/05/15 03:40:15;;;;;;;11.50;3.45;;;12.30;99.90;;;;;;5008385;28;20365;-69
2022/05/15 03:43:05;;;;;;;14.52;3.50;;;12.30;99.90;;;;;;4993424;28;20249;-69
2022/05/15 03:45:54;;;;;;;15.10;3.55;;;12.30;99.90;;;;;;4990601;28;20787;-69
2022/05/15 03:48:43;;;;;;;12.55;3.50;;;12.30;99.90;;;;;;5006797;28;22201;-69
2022/05/15 03:51:32;;;;;;;12.43;3.60;;;12.40;99.90;;;;;;4990610;28;20230;-71
2022/05/15 03:54:22;;;;;;;8.65;3.80;;;12.30;99.90;;;;;;4990988;28;20218;-70
2022/05/15 03:57:11;;;;;;;10.50;3.35;;;12.40;99.90;;;;;;4976421;28;20273;-71
2022/05/15 04:00:00;;;;;;;11.98;4.25;;;12.30;99.90;;;;;;4995035;28;20647;-69
2022/05/15 04:02:48;;;;;;;8.85;3.72;;;12.30;99.90;;;;;;4995661;28;20222;-69
2022/05/15 04:05:37;;;;;;;12.20;3.80;;;12.30;99.90;;;;;;5006221;28;20325;-68
2022/05/15 04:08:27;;;;;;;8.18;3.58;;;12.40;99.90;;;;;;4995209;28;20237;-69
2022/05/15 04:11:17;;;;;;;13.90;4.43;;;12.50;99.90;;;;;;4995002;28;20225;-69
2022/05/15 04:14:11;;;;;;;10.80;3.83;;;12.50;99.90;;;;;;4996082;28;20230;-69
2022/05/15 04:16:59;;;;;;;16.15;4.40;;;12.40;99.90;;;;;;4995553;28;20313;-68
2022/05/15 04:19:49;;;;;;;10.77;4.13;;;12.50;99.90;;;;;;4993501;28;20222;-68
2022/05/15 04:22:38;;;;;;;10.32;4.05;;;12.60;99.90;;;;;;5011298;28;20566;-69
2022/05/15 04:25:30;;;;;;;9.35;3.90;;;12.60;99.90;;;;;;4993792;28;20357;-69
2022/05/15 04:28:20;;;;;;;11.80;4.05;;;12.80;99.90;;;;;;4994151;28;20305;-69
2022/05/15 04:31:09;;;;;;;11.25;4.50;;;12.70;99.90;;;;;;4997356;28;20225;-69
2022/05/15 04:34:02;;;;;;;12.02;4.32;;;12.80;99.90;;;;;;4995099;28;20751;-69
2022/05/15 04:36:53;;;;;;;10.00;4.13;;;12.90;99.90;;;;;;4993455;28;20470;-69
2022/05/15 04:39:42;;;;;;;15.73;4.13;;;12.90;99.90;;;;;;4997608;28;20252;-69
2022/05/15 04:42:31;;;;;;;13.02;4.50;;;12.90;99.90;;;;;;4994442;28;20310;-70
2022/05/15 04:45:24;;;;;;;14.00;4.00;;;13.00;99.90;;;;;;4996354;28;20694;-70
2022/05/15 04:48:14;;;;;;;15.20;4.22;;;13.00;99.90;;;;;;4999232;28;20371;-71
2022/05/15 04:51:03;;;;;;;13.50;5.10;;;13.00;99.90;;;;;;5015011;28;20229;-70
2022/05/15 04:53:52;;;;;;;11.85;3.70;;;13.00;99.90;;;;;;5017359;28;20312;-69
2022/05/15 04:56:41;;;;;;;9.70;3.40;;;13.10;99.90;;;;;;5008219;28;20608;-69
2022/05/15 04:59:29;;;;;;;11.30;3.67;;;13.10;99.90;;;;;;5008520;28;20218;-69
2022/05/15 05:02:19;;;;;;;9.80;3.38;;;13.30;99.90;;;;;;5028884;28;20282;-70
2022/05/15 05:05:09;;;;;;;9.82;3.45;;;13.20;99.90;;;;;;5017281;28;20530;-70
2022/05/15 05:07:58;;;;;;;8.18;2.83;;;13.40;99.90;;;;;;4996047;28;20225;-69
2022/05/15 05:10:50;;;;;;;10.48;2.95;;;13.50;99.90;;;;;;4993053;28;20227;-70
2022/05/15 05:13:42;;;;;;;9.05;2.95;;;13.60;99.90;;;;;;4995614;28;20226;-70
2022/05/15 05:16:33;;;;;;;6.80;2.88;;;13.60;99.90;;;;;;5000945;28;20238;-69
2022/05/15 05:19:23;;;;;;;10.60;2.72;;;13.70;99.90;;;;;;4997495;28;21468;-70
2022/05/15 05:22:12;;;;;;;9.95;2.55;;;13.80;99.90;;;;;;4998823;28;20309;-70
2022/05/15 05:25:01;;;;;;;8.23;2.40;;;13.80;99.90;;;;;;5001167;28;20669;-70
2022/05/15 05:27:49;;;;;;;10.20;2.35;;;13.80;99.90;;;;;;5002736;28;20255;-71
2022/05/15 05:30:38;;;;;;;6.78;2.65;;;13.80;99.90;;;;;;4988706;28;20225;-70
2022/05/15 05:33:28;;;;;;;8.30;2.42;;;13.90;99.90;;;;;;4994589;28;20233;-70
2022/05/15 05:36:18;;;;;;;8.23;2.20;;;14.00;99.90;;;;;;4997347;28;20764;-71
2022/05/15 05:39:07;;;;;;;11.40;2.50;;;14.10;99.90;;;;;;5001955;28;20306;-70
2022/05/15 05:41:55;;;;;;;5.88;2.00;;;14.10;99.90;;;;;;4997793;28;20249;-70
2022/05/15 05:44:44;;;;;;;10.23;2.40;;;14.10;99.90;;;;;;5009814;28;20230;-71
2022/05/15 05:47:33;;;;;;;6.13;1.73;;;14.40;99.90;;;;;;5002474;28;20687;-71
2022/05/15 05:50:25;;;;;;;7.45;1.80;;;14.80;99.90;;;;;;5009470;28;20692;-70
2022/05/15 05:53:18;;;;;;;9.25;1.77;;;15.80;99.90;;;;;;4987879;28;20214;-72
2022/05/15 05:56:07;;;;;;;5.70;1.70;;;16.50;99.90;;;;;;4987928;28;20267;-71
2022/05/15 05:58:56;;;;;;;8.93;2.20;;;16.70;99.90;;;;;;5009840;28;20678;-71
2022/05/15 06:01:45;;;;;;;6.38;2.28;;;16.50;99.90;;;;;;5003271;28;20408;-71
2022/05/15 06:04:39;;;;;;;6.00;1.67;;;16.70;99.90;;;;;;5001097;28;20218;-71
2022/05/15 06:07:29;;;;;;;10.50;2.33;;;16.50;99.70;;;;;;4998094;28;20226;-72
2022/05/15 06:10:19;;;;;;;5.70;2.17;;;16.30;99.90;;;;;;5002174;28;20325;-70
2022/05/15 06:13:09;;;;;;;8.32;2.42;;;16.30;99.90;;;;;;5014057;28;20318;-68
2022/05/15 06:15:57;;;;;;;8.00;2.10;;;16.10;99.90;;;;;;5004713;28;20322;-70
2022/05/15 06:18:46;;;;;;;10.68;2.00;;;15.80;99.90;;;;;;5017751;28;20226;-70
2022/05/15 06:21:35;;;;;;;8.05;2.00;;;16.00;99.90;;;;;;5003624;28;20225;-69
2022/05/15 06:24:25;;;;;;;6.50;1.80;;;15.90;99.90;;;;;;5005254;28;20229;-69
2022/05/15 06:27:15;;;;;;;6.13;2.00;;;15.70;99.90;;;;;;5004905;28;20299;-69
2022/05/15 06:30:05;;;;;;;6.35;1.88;;;15.70;99.90;;;;;;5018962;28;20302;-69
2022/05/15 06:32:54;;;;;;;4.55;1.98;;;16.10;99.90;;;;;;5028214;28;20228;-69
2022/05/15 06:35:44;;;;;;;10.15;2.38;;;16.10;99.90;;;;;;5019705;28;20233;-69
2022/05/15 06:38:32;;;;;;;9.15;1.98;;;16.10;99.90;;;;;;4980458;28;20316;-68
2022/05/15 06:41:21;;;;;;;7.18;1.88;;;15.90;99.90;;;;;;4993586;28;20219;-68
2022/05/15 06:44:11;;;;;;;5.75;1.90;;;15.80;99.90;;;;;;4998155;28;20363;-69
2022/05/15 06:47:00;;;;;;;9.95;2.00;;;15.70;99.90;;;;;;4996813;28;20439;-69
2022/05/15 06:49:48;;;;;;;8.68;2.00;;;15.90;99.90;;;;;;4982703;28;20229;-68
2022/05/15 06:52:38;;;;;;;5.97;2.08;;;16.10;99.40;;;;;;4996221;28;20269;-68
2022/05/15 06:55:27;;;;;;;8.05;1.67;;;16.30;98.70;;;;;;4993711;28;20361;-69
2022/05/15 06:58:15;;;;;;;5.55;1.50;;;16.20;97.00;;;;;;4998337;28;20253;-67
2022/05/15 07:01:05;;;;;;;7.60;1.80;;;16.20;97.30;;;;;;4983157;28;20230;-70
2022/05/15 07:03:53;;;;;;;7.32;1.70;;;16.10;96.70;;;;;;5001009;28;20256;-69
2022/05/15 07:06:42;;;;;;;4.93;1.60;;;16.30;97.10;;;;;;5006051;28;20233;-68
2022/05/15 07:09:34;;;;;;;11.60;2.33;;;16.40;95.90;;;;;;5006193;28;20275;-68
2022/05/15 07:12:24;;;;;;;7.72;1.77;;;16.70;95.80;;;;;;5031367;28;20226;-68
2022/05/15 07:15:12;;;;;;;7.13;1.73;;;17.00;95.10;;;;;;5017023;28;20249;-69
2022/05/15 07:18:08;;;;;;;10.00;2.33;;;17.00;94.90;;;;;;5016354;28;20230;-69
2022/05/15 07:20:56;;;;;;;8.95;1.77;;;17.30;94.50;;;;;;5015994;28;20228;-71
2022/05/15 07:23:45;;;;;;;7.80;2.60;;;17.10;94.40;;;;;;5019090;28;20696;-71
2022/05/15 07:26:34;;;;;;;9.25;1.90;;;16.80;95.60;;;;;;5007423;28;20225;-71
2022/05/15 07:29:24;;;;;;;8.60;1.98;;;17.40;94.10;;;;;;5002419;28;20331;-72
2022/05/15 07:32:13;;;;;;;8.73;2.17;;;18.10;93.00;;;;;;5020651;28;20241;-69
2022/05/15 07:35:04;;;;;;;9.15;1.80;;;18.40;90.70;;;;;;5017582;28;20218;-67
2022/05/15 07:37:52;;;;;;;6.32;1.67;;;19.10;87.70;;;;;;5012782;28;20227;-68
2022/05/15 07:40:41;;;;;;;5.45;1.67;;;19.10;86.10;;;;;;5017468;28;20358;-68
2022/05/15 07:43:30;;;;;;;7.35;1.70;;;20.60;81.40;;;;;;5017814;28;20217;-69
2022/05/15 07:46:19;;;;;;;6.40;1.70;;;22.30;75.10;;;;;;5016036;28;20714;-70
2022/05/15 07:49:08;;;;;;;6.32;2.10;;;21.60;72.70;;;;;;5029964;28;20217;-68
2022/05/15 07:51:58;;;;;;;8.20;1.55;;;21.30;71.90;;;;;;5001185;28;20303;-70
2022/05/15 07:54:47;;;;;;;4.65;1.73;;;22.40;70.70;;;;;;5000899;28;20324;-69
2022/05/15 07:57:39;;;;;;;5.95;1.67;;;22.80;67.80;;;;;;4986571;28;20273;-70
2022/05/15 08:00:28;;;;;;;8.90;2.00;;;23.20;67.70;;;;;;4996735;28;20222;-68
2022/05/15 08:03:17;;;;;;;7.00;1.60;;;24.60;63.90;;;;;;4987469;28;20303;-69
2022/05/15 08:09:13;;;;;;;8.43;1.80;;;23.60;66.50;;;;;;4966685;28;20213;-71
2022/05/15 08:12:05;;;;;;;5.75;1.73;;;24.30;61.10;;;;;;5000995;28;20318;-69
2022/05/15 08:14:54;;;;;;;8.90;1.92;;;24.70;59.50;;;;;;4990076;28;21099;-69
2022/05/15 08:17:46;;;;;;;4.93;2.13;;;24.40;61.00;;;;;;4996340;28;20229;-70
2022/05/15 08:23:45;;;;;;;7.68;1.90;;;25.00;56.50;;;;;;5008951;28;20244;-69
2022/05/15 08:26:37;;;;;;;5.22;1.70;;;22.20;61.50;;;;;;5001421;28;20237;-70
2022/05/15 08:29:26;;;;;;;5.00;1.83;;;24.90;60.00;;;;;;4996097;28;20234;-70
2022/05/15 08:32:14;;;;;;;5.88;1.88;;;26.40;59.00;;;;;;5000117;28;20241;-70
2022/05/15 08:35:05;;;;;;;4.43;1.60;;;28.80;54.70;;;;;;4999175;28;20563;-68
2022/05/15 08:37:54;;;;;;;6.00;1.83;;;27.50;55.40;;;;;;4985121;28;20305;-69
2022/05/15 08:40:49;;;;;;;6.00;1.80;;;27.90;54.00;;;;;;4999834;28;20228;-69
2022/05/15 08:43:45;;;;;;;13.00;1.90;;;29.60;51.90;;;;;;5001523;28;20237;-69
2022/05/15 08:46:40;;;;;;;12.18;1.80;;;30.20;50.20;;;;;;4997601;28;20227;-69
2022/05/15 08:49:34;;;;;;;6.45;1.88;;;25.60;52.20;;;;;;4997473;28;20670;-68
2022/05/15 08:52:28;;;;;;;6.43;2.00;;;30.00;50.90;;;;;;5011250;28;20236;-69
2022/05/15 08:55:25;;;;;;;3.90;1.52;;;27.80;49.10;;;;;;5020954;28;20315;-69
2022/05/15 08:58:19;;;;;;;5.45;2.00;;;28.00;50.00;;;;;;5020580;28;20262;-68
2022/05/15 09:01:11;;;;;;;5.60;1.77;;;24.50;54.40;;;;;;5021459;28;20884;-69
2022/05/15 09:04:01;;;;;;;6.55;2.05;;;24.20;56.20;;;;;;5007311;28;20229;-68
2022/05/15 09:07:00;;;;;;;4.07;1.73;;;28.00;53.50;;;;;;5007407;28;20225;-70
2022/05/15 09:10:02;;;;;;;4.80;1.67;;;30.40;48.90;;;;;;5008113;28;20233;-69
2022/05/15 09:13:04;;;;;;;5.28;1.70;;;28.40;45.90;;;;;;5030197;28;20222;-69
2022/05/15 09:16:00;;;;;;;6.30;2.10;;;26.80;50.80;;;;;;4995512;28;20217;-69
2022/05/15 09:18:50;;;;;;;7.53;2.03;;;26.80;53.50;;;;;;5000237;28;20272;-69
2022/05/15 09:21:39;;;;;;;6.53;1.80;;;30.30;50.10;;;;;;5003011;28;20300;-69
2022/05/15 09:24:36;;;;;;;6.10;1.80;;;27.70;48.60;;;;;;5000837;28;21268;-69
2022/05/15 09:27:26;;;;;;;6.10;2.28;;;26.40;50.80;;;;;;5002675;28;20858;-69
2022/05/15 09:30:15;;;;;;;5.60;1.92;;;26.20;53.60;;;;;;5019210;28;20625;-68
2022/05/15 09:33:06;;;;;;;8.95;2.40;;;26.40;54.20;;;;;;5005530;28;20230;-69
2022/05/15 09:36:19;;;;;;;5.55;2.10;;;27.50;51.00;;;;;;5002154;28;20329;-69
2022/05/15 09:39:26;;;;;;;4.75;1.70;;;24.70;53.00;;;;;;4986335;28;20249;-69
2022/05/15 09:45:30;;;;;;;4.15;1.95;;;29.50;48.40;;;;;;5006165;28;20253;-69
2022/05/15 09:48:23;;;;;;;6.18;1.90;;;27.00;48.60;;;;;;5009279;28;20510;-69
2022/05/15 09:51:13;;;;;;;9.05;1.95;;;24.00;53.50;;;;;;5005437;28;20254;-71
2022/05/15 09:54:03;;;;;;;6.68;1.70;;;28.10;51.60;;;;;;5018855;28;20221;-70
2022/05/15 09:57:09;;;;;;;4.32;1.70;;;28.70;49.40;;;;;;5009414;28;20240;-69
2022/05/15 10:00:05;;;;;;;6.55;2.55;;;29.30;50.00;;;;;;5008898;28;20213;-69
2022/05/15 10:03:03;;;;;;;7.53;1.80;;;28.50;50.60;;;;;;5021983;28;20352;-68
2022/05/15 10:05:59;;;;;;;6.97;1.80;;;26.70;48.80;;;;;;5007009;28;20230;-70
2022/05/15 10:09:05;;;;;;;4.93;1.80;;;24.80;51.70;;;;;;5003447;28;20308;-70
2022/05/15 10:11:59;;;;;;;8.52;2.10;;;24.90;53.80;;;;;;5017587;28;20651;-69
2022/05/15 10:14:52;;;;;;;5.25;1.85;;;24.80;54.00;;;;;;5003453;28;20226;-69
2022/05/15 10:17:50;;;;;;;7.32;2.00;;;25.70;52.60;;;;;;5001879;28;20233;-70
2022/05/15 10:20:41;;;;;;;5.32;2.30;;;27.50;50.50;;;;;;5014234;28;20235;-69
2022/05/15 10:23:39;;;;;;;5.60;2.38;;;27.20;49.00;;;;;;5003974;28;20221;-70
2022/05/15 10:26:33;;;;;;;5.25;1.85;;;25.00;51.50;;;;;;5005445;28;20229;-70
2022/05/15 10:29:29;;;;;;;2.38;1.48;;;25.30;54.00;;;;;;5004276;28;20261;-70
2022/05/15 10:32:22;;;;;;;6.25;2.35;;;27.20;51.10;;;;;;5000627;28;20249;-70
2022/05/15 10:35:15;;;;;;;6.22;2.00;;;28.40;50.00;;;;;;4998112;28;20221;-69
2022/05/15 10:38:18;;;;;;;7.22;2.20;;;29.50;47.90;;;;;;5007433;28;20228;-70
2022/05/15 10:41:20;;;;;;;6.07;1.90;;;30.10;46.80;;;;;;5035233;28;20220;-71
2022/05/15 10:44:23;;;;;;;4.65;1.90;;;29.30;46.60;;;;;;5019966;28;20229;-70
2022/05/15 10:47:18;;;;;;;4.55;1.90;;;31.10;46.60;;;;;;4999807;28;20239;-71
2022/05/15 10:50:21;;;;;;;3.50;1.90;;;32.40;44.70;;;;;;5002309;28;20230;-70
2022/05/15 10:59:59;;;;;;;6.63;2.00;;;30.00;43.60;;;;;;5001513;28;20221;-70
2022/05/15 11:03:09;;;;;;;5.82;1.83;;;27.60;46.30;;;;;;4986831;28;20226;-69
2022/05/15 18:57:38;;;;;;;5.80;2.20;;;18.00;64.40;;;;;;5067260;28;20308;-69
2022/05/15 19:00:27;;;;;;;5.68;2.42;;;18.00;64.80;;;;;;5081919;28;20258;-69
2022/05/15 19:03:16;;;;;;;5.30;2.33;;;18.00;65.00;;;;;;5081590;28;20650;-69
2022/05/15 19:06:05;;;;;;;11.55;3.05;;;17.90;65.20;;;;;;5072960;28;20380;-69
2022/05/15 19:08:54;;;;;;;8.30;2.90;;;17.90;65.60;;;;;;5092180;28;20735;-68
2022/05/15 19:11:44;;;;;;;6.30;2.95;;;17.90;65.70;;;;;;5093113;28;20717;-69
2022/05/15 19:14:33;;;;;;;9.43;2.47;;;17.90;66.00;;;;;;5093995;28;20685;-68
2022/05/15 19:17:22;;;;;;;9.40;3.03;;;17.80;66.50;;;;;;5094301;28;20578;-69
2022/05/15 19:20:16;;;;;;;9.70;2.58;;;17.70;66.80;;;;;;5077993;28;20735;-67
2022/05/15 19:23:06;;;;;;;5.70;2.67;;;17.70;67.10;;;;;;5076628;28;21162;-67
2022/05/15 19:25:55;;;;;;;10.00;2.75;;;17.70;67.20;;;;;;5080896;28;20222;-70
2022/05/15 19:28:49;;;;;;;6.78;2.75;;;17.60;67.90;;;;;;5087496;28;20223;-67
2022/05/15 19:31:38;;;;;;;6.10;2.70;;;17.60;68.10;;;;;;5089791;28;20251;-69
2022/05/15 19:34:30;;;;;;;8.60;3.10;;;17.50;68.60;;;;;;5094280;28;20719;-69
2022/05/15 19:37:21;;;;;;;6.70;2.63;;;17.40;69.00;;;;;;5092954;28;20227;-69
2022/05/15 19:40:11;;;;;;;5.45;3.15;;;17.40;69.20;;;;;;5076539;28;20247;-69
2022/05/15 19:43:00;;;;;;;5.60;2.67;;;17.40;69.00;;;;;;5080896;28;20222;-69
2022/05/15 19:45:51;;;;;;;5.72;3.13;;;17.40;69.80;;;;;;5090048;28;20632;-69
2022/05/15 19:48:42;;;;;;;6.28;3.20;;;17.30;70.00;;;;;;5087558;28;20238;-69
2022/05/15 19:51:31;;;;;;;11.55;3.90;;;17.30;70.50;;;;;;5094481;28;20325;-68
2022/05/15 19:54:20;;;;;;;7.03;3.15;;;17.30;70.80;;;;;;5091405;28;20637;-69
2022/05/15 19:57:11;;;;;;;10.85;3.67;;;17.20;71.20;;;;;;5092328;28;20223;-69
2022/05/15 20:00:00;;;;;;;7.25;3.33;;;17.20;71.80;;;;;;5092302;28;20313;-69
2022/05/15 20:03:10;;;;;;;6.38;3.55;;;17.10;72.40;;;;;;5081118;28;20213;-68
2022/05/15 20:12:12;;;;;;;9.23;3.80;;;17.20;73.00;;;;;;5070824;28;20336;-68
2022/05/15 20:15:00;;;;;;;7.38;3.40;;;17.20;73.30;;;;;;5076756;28;20224;-67
2022/05/15 20:17:49;;;;;;;9.32;3.70;;;17.10;73.60;;;;;;5076597;28;20288;-68
2022/05/15 20:20:39;;;;;;;14.23;3.88;;;17.10;73.80;;;;;;5101183;27;20222;-68
2022/05/15 20:23:27;;;;;;;9.80;3.72;;;17.10;74.00;;;;;;5097112;27;20222;-69
2022/05/15 20:26:19;;;;;;;12.23;3.88;;;17.10;74.00;;;;;;5101057;27;20219;-69
2022/05/15 20:29:07;;;;;;;13.07;3.08;;;17.10;74.30;;;;;;5086839;28;20642;-68
2022/05/15 20:31:57;;;;;;;8.35;3.38;;;17.10;74.50;;;;;;5081300;28;20542;-68
2022/05/15 20:34:45;;;;;;;10.35;3.40;;;17.20;74.20;;;;;;5097745;27;20634;-68
2022/05/15 20:37:36;;;;;;;6.10;3.47;;;17.20;74.10;;;;;;5098168;28;20222;-68
2022/05/15 20:40:25;;;;;;;6.82;3.38;;;17.10;74.30;;;;;;5094816;28;20286;-69
2022/05/15 20:43:13;;;;;;;8.80;3.88;;;17.20;74.50;;;;;;5075627;28;20586;-69
2022/05/15 20:46:02;;;;;;;8.27;3.55;;;17.20;74.40;;;;;;5096437;28;20305;-68
2022/05/15 20:48:52;;;;;;;10.43;3.45;;;17.20;74.50;;;;;;5098306;28;20223;-67
2022/05/15 20:51:42;;;;;;;12.18;3.35;;;17.20;74.50;;;;;;5097472;28;20264;-70
2022/05/15 20:54:36;;;;;;;10.75;3.63;;;17.20;74.60;;;;;;5085271;28;20900;-68
2022/05/15 20:57:26;;;;;;;9.45;3.35;;;17.10;75.90;;;;;;5093215;27;20218;-68
2022/05/15 21:00:16;;;;;;;7.43;3.38;;;17.00;76.10;;;;;;5102575;27;20701;-69
2022/05/15 21:03:12;;;;;;;9.00;3.22;;;17.00;76.00;;;;;;5094408;27;20561;-68
2022/05/15 21:06:01;;;;;;;9.38;3.15;;;17.00;75.90;;;;;;5096480;27;20223;-68
2022/05/15 21:08:49;;;;;;;6.93;2.95;;;16.90;75.70;;;;;;5086136;27;20218;-68
2022/05/15 21:11:43;;;;;;;7.45;3.10;;;16.90;76.20;;;;;;5095832;27;20230;-68
2022/05/15 21:14:32;;;;;;;5.85;3.15;;;17.00;75.90;;;;;;5101333;27;20237;-69
2022/05/15 21:17:23;;;;;;;7.70;3.30;;;17.00;76.20;;;;;;5086848;27;20212;-69
2022/05/15 21:20:13;;;;;;;6.45;3.10;;;17.10;76.10;;;;;;5080388;28;20248;-68
2022/05/15 21:23:02;;;;;;;7.95;3.10;;;17.00;76.80;;;;;;5080579;27;20308;-68
2022/05/15 21:25:51;;;;;;;9.02;3.47;;;16.90;77.40;;;;;;5094244;28;20219;-69
2022/05/15 21:28:41;;;;;;;8.15;3.75;;;16.90;77.80;;;;;;5100008;27;20226;-69
2022/05/15 21:31:34;;;;;;;12.13;3.72;;;17.00;77.80;;;;;;5104761;27;20218;-69
2022/05/15 21:34:23;;;;;;;7.75;3.42;;;16.90;78.20;;;;;;5084223;28;20261;-69
2022/05/15 21:37:11;;;;;;;8.38;3.75;;;16.90;78.30;;;;;;5101815;27;20231;-69
2022/05/15 21:46:19;;;;;;;9.55;3.30;;;16.90;78.40;;;;;;5100477;27;20215;-69
2022/05/15 21:49:08;;;;;;;6.53;2.88;;;16.80;76.50;;;;;;5078445;28;20215;-68
2022/05/15 21:51:57;;;;;;;5.75;2.72;;;16.50;75.80;;;;;;5102900;27;20227;-68
2022/05/15 21:54:46;;;;;;;6.90;2.88;;;16.20;76.20;;;;;;5077246;28;20226;-67
2022/05/15 21:57:35;;;;;;;8.07;3.00;;;16.10;77.70;;;;;;5095724;28;20222;-68
2022/05/15 22:00:58;;;;;;;9.55;3.33;;;15.90;78.40;;;;;;5086603;27;20268;-68
2022/05/15 22:03:48;;;;;;;6.68;3.38;;;15.80;79.50;;;;;;5029723;28;20217;-70
2022/05/15 22:06:37;;;;;;;6.28;3.03;;;15.70;80.10;;;;;;5095378;27;20250;-69
2022/05/15 22:09:26;;;;;;;7.07;2.95;;;15.50;80.10;;;;;;5076740;28;20219;-69
2022/05/15 22:12:14;;;;;;;7.75;3.17;;;15.50;80.50;;;;;;5085976;27;20226;-69
2022/05/15 22:15:03;;;;;;;4.40;2.45;;;15.50;80.60;;;;;;5073131;28;20223;-69
2022/05/15 22:17:56;;;;;;;5.25;2.65;;;15.40;81.30;;;;;;5075240;28;20794;-68
2022/05/15 22:20:46;;;;;;;6.60;2.63;;;15.40;81.80;;;;;;5094301;28;20219;-68
2022/05/15 22:23:35;;;;;;;5.40;2.25;;;15.40;81.90;;;;;;5090462;27;20233;-68
2022/05/15 22:26:31;;;;;;;10.65;2.63;;;15.20;82.40;;;;;;5094890;28;20238;-69
2022/05/15 22:29:21;;;;;;;5.50;2.50;;;15.30;83.00;;;;;;5094611;27;20245;-69
2022/05/15 22:32:10;;;;;;;5.45;2.13;;;15.20;83.70;;;;;;5095260;28;20226;-69
2022/05/15 22:34:59;;;;;;;5.18;2.10;;;15.10;84.50;;;;;;5094628;27;20269;-70
2022/05/15 22:37:57;;;;;;;5.07;2.55;;;15.00;85.30;;;;;;5093386;28;20663;-70
2022/05/15 22:40:46;;;;;;;4.13;2.17;;;15.10;86.10;;;;;;5082571;28;20222;-68
2022/05/15 22:43:35;;;;;;;5.43;2.35;;;14.90;87.70;;;;;;5096749;28;20223;-70
2022/05/15 22:46:24;;;;;;;6.78;2.30;;;14.90;88.70;;;;;;5094527;28;20218;-69
2022/05/15 22:49:12;;;;;;;4.45;2.40;;;14.80;90.00;;;;;;5076464;28;20326;-69
2022/05/15 22:52:04;;;;;;;7.38;2.20;;;14.70;90.70;;;;;;5077785;28;20543;-68
2022/05/15 22:54:54;;;;;;;5.55;2.42;;;14.60;91.30;;;;;;5076816;28;20787;-68
2022/05/15 22:57:44;;;;;;;7.97;2.70;;;14.60;92.00;;;;;;5077603;28;20300;-70
2022/05/15 23:00:33;;;;;;;3.70;2.10;;;14.60;92.40;;;;;;5075294;28;20230;-69
2022/05/15 23:03:22;;;;;;;5.70;2.13;;;14.50;93.30;;;;;;5091817;28;20215;-69
2022/05/15 23:09:18;;;;;;;7.50;2.45;;;14.30;94.30;;;;;;5086321;28;20221;-69
2022/05/15 23:12:09;;;;;;;6.82;2.40;;;14.30;95.00;;;;;;5093011;28;20223;-69